Time;durP1;ratioP1;P1;durP2;ratioP2;P2;SDS_P1;SDS_P2;PMS_P1;PMS_P2;Temp;Humidity;BMP_temperature;BMP_pressure;BME280_temperature;BME280_humidity;BME280_pressure;Samples;Min_cycle;Max_cycle;Signal;HPM_P1;HPM_P2
2023/06/09 00:00:55;;;;;;;11.10;5.65;;;;;;;23.53;48.40;101729.56;5003778;28;20088;-34
2023/06/09 00:03:22;;;;;;;7.10;4.78;;;;;;;23.52;48.53;101727.88;5004877;28;20103;-34
2023/06/09 00:05:49;;;;;;;9.20;4.75;;;;;;;23.51;48.43;101720.75;5001518;28;20056;-34
2023/06/09 00:08:16;;;;;;;8.02;4.95;;;;;;;23.51;48.51;101719.91;5001653;28;20108;-34
2023/06/09 00:10:42;;;;;;;7.30;4.53;;;;;;;23.50;48.25;101716.38;5005318;28;20065;-34
2023/06/09 00:13:09;;;;;;;6.53;4.07;;;;;;;23.48;48.22;101718.41;5001543;28;20049;-33
2023/06/09 00:15:36;;;;;;;7.50;4.72;;;;;;;23.48;48.83;101718.41;5002746;28;20136;-34
2023/06/09 00:18:03;;;;;;;8.90;4.85;;;;;;;23.47;48.60;101722.09;5003040;28;20053;-33
2023/06/09 00:20:34;;;;;;;7.97;4.57;;;;;;;23.48;48.19;101720.25;5001589;28;20092;-34
2023/06/09 00:23:01;;;;;;;10.60;5.18;;;;;;;23.46;48.34;101716.88;5002072;28;20054;-34
2023/06/09 00:25:28;;;;;;;8.90;4.88;;;;;;;23.45;48.74;101710.63;5003226;28;20042;-34
2023/06/09 00:27:55;;;;;;;7.97;4.82;;;;;;;23.44;48.73;101717.06;4997838;28;20054;-34
2023/06/09 00:30:22;;;;;;;8.65;4.70;;;;;;;23.43;48.32;101712.63;4998447;28;20104;-35
2023/06/09 00:33:04;;;;;;;8.82;4.70;;;;;;;23.43;48.49;101709.09;4998761;28;20057;-34
2023/06/09 00:35:30;;;;;;;8.18;4.88;;;;;;;23.42;49.15;101704.69;5002812;28;20128;-34
2023/06/09 00:37:57;;;;;;;7.50;4.30;;;;;;;23.41;48.39;101706.56;4997287;28;20077;-34
2023/06/09 00:40:24;;;;;;;7.97;4.38;;;;;;;23.39;48.74;101706.72;5001429;28;20038;-34
2023/06/09 00:42:51;;;;;;;7.85;4.65;;;;;;;23.39;48.99;101705.88;5001880;28;20385;-34
2023/06/09 00:45:18;;;;;;;7.22;4.28;;;;;;;23.38;48.77;101702.31;4994371;28;20084;-34
2023/06/09 00:47:45;;;;;;;7.22;4.07;;;;;;;23.38;49.30;101704.19;4998951;28;20077;-34
2023/06/09 00:50:13;;;;;;;8.18;4.40;;;;;;;23.37;49.17;101705.22;5000328;28;20038;-33
2023/06/09 00:52:41;;;;;;;7.85;4.47;;;;;;;23.36;48.87;101700.81;5004264;28;20574;-34
2023/06/09 00:55:09;;;;;;;7.85;3.97;;;;;;;23.34;49.17;101700.97;5002207;28;20577;-35
2023/06/09 00:57:36;;;;;;;6.60;4.28;;;;;;;23.33;49.40;101703.84;5002551;28;20053;-34
2023/06/09 01:00:07;;;;;;;5.78;3.72;;;;;;;23.33;48.76;101710.09;5002478;28;20133;-34
2023/06/09 01:02:38;;;;;;;7.45;4.45;;;;;;;23.31;49.48;101701.31;4997033;28;20132;-34
2023/06/09 01:05:08;;;;;;;7.40;4.35;;;;;;;23.30;48.79;101699.63;5002179;28;20373;-34
2023/06/09 01:07:54;;;;;;;5.53;3.75;;;;;;;23.29;49.68;101697.09;5007177;28;20057;-34
2023/06/09 01:10:38;;;;;;;7.00;4.22;;;;;;;23.29;49.25;101703.34;5000655;28;20053;-34
2023/06/09 01:13:08;;;;;;;7.28;3.97;;;;;;;23.28;49.14;101700.81;5002722;28;20112;-34
2023/06/09 01:15:43;;;;;;;7.45;4.50;;;;;;;23.27;49.41;101691.00;5000285;28;20500;-34
2023/06/09 01:18:14;;;;;;;7.10;4.13;;;;;;;23.26;49.32;101683.91;5000444;28;20069;-34
2023/06/09 01:20:45;;;;;;;6.65;4.15;;;;;;;23.24;49.49;101694.91;5002856;28;20097;-34
2023/06/09 01:23:36;;;;;;;8.18;3.83;;;;;;;23.23;49.27;101689.63;5000369;28;20085;-34
2023/06/09 01:26:03;;;;;;;8.65;3.67;;;;;;;23.24;49.26;101691.34;5002426;28;20048;-34
2023/06/09 01:28:31;;;;;;;8.88;3.95;;;;;;;23.22;49.16;101696.06;4999862;28;21374;-34
2023/06/09 01:31:00;;;;;;;6.55;4.40;;;;;;;23.21;49.35;101694.38;4996760;28;20108;-34
2023/06/09 01:33:27;;;;;;;7.72;3.85;;;;;;;23.20;49.65;101693.53;4999247;28;20070;-33
2023/06/09 01:35:54;;;;;;;7.60;3.95;;;;;;;23.20;49.42;101687.28;4999927;28;20073;-34
2023/06/09 01:38:24;;;;;;;7.43;3.28;;;;;;;23.19;49.37;101688.28;5000935;28;20438;-34
2023/06/09 01:40:50;;;;;;;6.88;4.07;;;;;;;23.17;49.36;101685.75;5001893;28;20073;-34
2023/06/09 01:43:17;;;;;;;8.45;4.30;;;;;;;23.16;49.27;101675.94;5006201;28;20100;-34
2023/06/09 01:45:44;;;;;;;6.45;3.80;;;;;;;23.15;49.21;101672.38;5005268;28;20050;-34
2023/06/09 01:48:42;;;;;;;8.40;3.97;;;;;;;23.15;49.08;101682.34;5003705;28;20452;-34
2023/06/09 01:51:15;;;;;;;7.63;3.92;;;;;;;23.13;49.43;101678.97;5001859;28;20160;-34
2023/06/09 01:53:48;;;;;;;6.22;3.65;;;;;;;23.13;49.63;101678.97;5000619;28;20085;-34
2023/06/09 01:56:24;;;;;;;5.15;3.25;;;;;;;23.12;49.86;101678.13;5001179;28;20082;-34
2023/06/09 01:58:55;;;;;;;7.53;3.70;;;;;;;23.11;49.27;101684.53;5009157;28;20081;-33
2023/06/09 02:01:23;;;;;;;7.32;3.22;;;;;;;23.10;49.71;101673.91;5040022;28;20057;-34
2023/06/09 02:03:52;;;;;;;6.20;3.40;;;;;;;23.09;49.80;101673.06;5009673;28;20056;-34
2023/06/09 02:06:20;;;;;;;6.88;3.22;;;;;;;23.10;49.20;101676.59;5010687;28;20071;-34
2023/06/09 02:08:47;;;;;;;6.18;3.83;;;;;;;23.07;49.55;101677.78;5010737;28;20106;-34
2023/06/09 02:11:14;;;;;;;7.18;3.88;;;;;;;23.07;49.38;101668.81;5012074;28;20046;-34
2023/06/09 02:13:41;;;;;;;7.07;3.22;;;;;;;23.08;49.41;101678.66;5035455;28;20089;-34
2023/06/09 02:16:07;;;;;;;6.80;3.65;;;;;;;23.06;49.49;101670.69;5000396;28;20050;-34
2023/06/09 02:18:34;;;;;;;6.32;3.50;;;;;;;23.05;49.57;101674.41;5006504;28;20054;-34
2023/06/09 02:21:01;;;;;;;7.47;2.90;;;;;;;23.05;50.19;101674.41;5004037;28;20108;-34
2023/06/09 02:23:27;;;;;;;8.10;3.55;;;;;;;23.05;50.33;101673.56;5002019;28;20319;-34
2023/06/09 02:25:54;;;;;;;6.32;3.40;;;;;;;23.04;49.60;101670.03;5004526;28;20060;-34
2023/06/09 02:28:21;;;;;;;8.38;3.25;;;;;;;23.03;49.45;101676.41;5002835;28;20737;-33
2023/06/09 02:30:47;;;;;;;6.32;3.28;;;;;;;23.02;49.67;101663.91;5001708;28;20322;-33
2023/06/09 02:33:15;;;;;;;6.50;3.20;;;;;;;23.02;50.12;101668.47;5001280;28;20087;-34
2023/06/09 02:35:41;;;;;;;6.22;3.20;;;;;;;23.01;49.71;101670.34;5004915;28;20050;-34
2023/06/09 02:38:08;;;;;;;6.30;3.10;;;;;;;23.01;49.75;101666.78;5004468;28;20177;-33
2023/06/09 02:40:35;;;;;;;5.82;3.05;;;;;;;22.99;49.90;101666.94;5001871;28;20112;-35
2023/06/09 02:43:01;;;;;;;6.20;2.92;;;;;;;22.99;49.36;101658.84;5007482;28;20049;-33
2023/06/09 02:45:28;;;;;;;6.05;3.17;;;;;;;22.98;49.82;101659.84;5002227;28;20140;-34
2023/06/09 02:47:55;;;;;;;5.85;3.25;;;;;;;22.97;49.80;101655.47;5003344;28;20049;-34
2023/06/09 02:50:23;;;;;;;5.63;3.35;;;;;;;22.98;49.89;101656.31;5007423;28;20056;-36
2023/06/09 02:52:50;;;;;;;7.80;3.47;;;;;;;22.97;49.66;101660.88;5010279;28;20112;-34
2023/06/09 02:55:18;;;;;;;7.10;3.30;;;;;;;22.96;49.46;101664.59;5003223;28;20046;-34
2023/06/09 02:57:45;;;;;;;4.97;2.63;;;;;;;22.96;50.22;101661.06;5004542;28;20405;-34
2023/06/09 03:00:13;;;;;;;6.25;2.80;;;;;;;22.94;49.94;101666.59;5000030;28;20061;-34
2023/06/09 03:02:41;;;;;;;6.90;3.53;;;;;;;22.94;49.78;101663.06;4997201;28;20104;-35
2023/06/09 03:05:09;;;;;;;6.60;2.72;;;;;;;22.93;50.06;101662.22;5003793;28;20046;-34
2023/06/09 03:07:36;;;;;;;5.60;2.95;;;;;;;22.93;49.64;101654.09;5003845;28;20057;-34
2023/06/09 03:10:04;;;;;;;6.40;3.13;;;;;;;22.92;49.56;101655.13;5001039;28;20136;-34
2023/06/09 03:12:31;;;;;;;6.13;2.60;;;;;;;22.91;49.81;101661.53;5002200;28;20496;-33
2023/06/09 03:14:57;;;;;;;5.45;3.17;;;;;;;22.91;50.12;101661.53;5000982;28;20077;-34
2023/06/09 03:17:25;;;;;;;6.72;2.67;;;;;;;22.90;50.12;101662.50;4999798;28;20426;-34
2023/06/09 03:19:51;;;;;;;5.18;2.80;;;;;;;22.89;49.68;101658.97;5003756;28;21204;-34
2023/06/09 03:22:18;;;;;;;4.88;2.58;;;;;;;22.88;49.56;101659.16;5002084;28;20061;-34
2023/06/09 03:24:45;;;;;;;4.60;2.60;;;;;;;22.88;49.79;101664.56;4999551;28;20145;-34
2023/06/09 03:27:12;;;;;;;5.10;2.72;;;;;;;22.88;49.75;101656.44;4999520;28;20112;-34
2023/06/09 03:29:38;;;;;;;4.20;2.95;;;;;;;22.87;50.10;101670.94;5001443;28;20053;-34
2023/06/09 03:32:06;;;;;;;5.65;2.97;;;;;;;22.86;49.94;101669.25;4999126;28;20042;-34
2023/06/09 03:34:32;;;;;;;5.53;3.20;;;;;;;22.84;49.91;101655.94;5004912;28;20081;-33
2023/06/09 03:36:59;;;;;;;3.90;2.45;;;;;;;22.85;49.78;101668.41;4999505;28;20136;-33
2023/06/09 03:39:25;;;;;;;4.78;2.80;;;;;;;22.83;49.95;101659.63;5003837;28;20046;-34
2023/06/09 03:41:54;;;;;;;6.40;2.70;;;;;;;22.84;49.78;101660.50;5003276;28;20156;-34
2023/06/09 03:44:21;;;;;;;5.25;2.80;;;;;;;22.82;50.31;101659.78;5006073;28;20042;-34
2023/06/09 03:46:48;;;;;;;4.85;2.35;;;;;;;22.82;50.31;101659.78;5006270;28;20082;-33
2023/06/09 03:49:14;;;;;;;6.53;2.88;;;;;;;22.81;50.09;101660.81;5005437;28;20093;-34
2023/06/09 03:51:41;;;;;;;5.78;2.75;;;;;;;22.81;50.06;101656.25;5001932;28;20065;-34
2023/06/09 03:54:08;;;;;;;4.72;2.40;;;;;;;22.81;49.81;101653.53;5005825;28;20054;-34
2023/06/09 03:56:34;;;;;;;4.60;2.50;;;;;;;22.81;49.88;101652.69;5004639;28;20108;-34
2023/06/09 03:59:01;;;;;;;7.53;3.22;;;;;;;22.81;49.99;101650.00;5002130;28;20053;-35
2023/06/09 04:01:28;;;;;;;34.10;8.27;;;;;;;22.80;49.67;101651.84;5003228;28;20078;-34
2023/06/09 04:03:55;;;;;;;30.75;8.77;;;;;;;22.80;50.24;101654.56;5003050;28;20062;-34
2023/06/09 04:06:22;;;;;;;24.67;9.30;;;;;;;22.80;50.27;101651.03;5004217;28;20053;-33
2023/06/09 04:08:48;;;;;;;27.27;7.95;;;;;;;22.79;49.97;101646.59;5007486;28;20081;-34
2023/06/09 04:11:15;;;;;;;28.95;8.57;;;;;;;22.79;50.28;101646.59;4997342;28;20300;-34
2023/06/09 04:13:41;;;;;;;29.55;8.93;;;;;;;22.77;50.33;101644.06;4999461;28;21520;-34
2023/06/09 04:16:08;;;;;;;21.65;8.73;;;;;;;22.77;50.16;101649.47;4999505;28;20492;-34
2023/06/09 04:18:35;;;;;;;25.23;8.90;;;;;;;22.76;50.07;101647.78;5003226;28;20112;-34
2023/06/09 04:21:02;;;;;;;23.73;7.88;;;;;;;22.76;50.37;101649.66;5003550;28;20055;-34
2023/06/09 04:23:28;;;;;;;22.48;8.68;;;;;;;22.75;50.38;101654.19;5006302;28;20107;-34
2023/06/09 04:25:55;;;;;;;23.67;8.65;;;;;;;22.74;50.13;101652.50;5002546;28;20405;-33
2023/06/09 04:28:22;;;;;;;24.65;8.13;;;;;;;22.75;50.22;101656.06;5005147;28;20054;-34
2023/06/09 04:30:50;;;;;;;23.08;7.80;;;;;;;22.75;50.21;101661.47;5001638;28;20060;-34
2023/06/09 04:33:18;;;;;;;27.42;8.30;;;;;;;22.74;50.26;101663.31;4998808;28;20109;-34
2023/06/09 04:35:46;;;;;;;21.98;7.40;;;;;;;22.75;50.26;101661.47;4997916;28;20373;-34
2023/06/09 04:38:14;;;;;;;23.77;8.13;;;;;;;22.75;50.02;101667.69;4999779;28;20045;-34
2023/06/09 04:40:40;;;;;;;19.75;7.00;;;;;;;22.75;49.98;101667.69;4999403;28;20046;-33
2023/06/09 04:43:07;;;;;;;21.20;7.05;;;;;;;22.76;50.16;101665.88;5004285;28;20050;-34
2023/06/09 04:45:35;;;;;;;22.15;7.15;;;;;;;22.76;50.04;101658.59;5002770;28;20061;-33
2023/06/09 04:48:02;;;;;;;20.63;7.28;;;;;;;22.77;50.19;101668.41;5002861;28;20100;-34
2023/06/09 04:50:32;;;;;;;20.73;7.13;;;;;;;22.77;49.69;101657.59;4999480;28;20160;-34
2023/06/09 04:53:03;;;;;;;15.63;7.72;;;;;;;22.79;49.81;101660.13;5002443;28;20101;-34
2023/06/09 04:55:30;;;;;;;17.88;7.63;;;;;;;22.78;50.17;101661.97;4998462;28;20089;-34
2023/06/09 04:57:57;;;;;;;13.40;6.60;;;;;;;22.81;49.69;101660.81;5001306;28;20081;-34
2023/06/09 05:00:26;;;;;;;16.73;7.40;;;;;;;22.82;49.50;101657.09;5001406;28;20080;-34
2023/06/09 05:02:54;;;;;;;13.38;7.20;;;;;;;22.83;49.76;101658.78;5002709;28;20422;-34
2023/06/09 05:05:21;;;;;;;15.65;6.57;;;;;;;22.83;49.79;101664.19;5004682;28;20050;-33
2023/06/09 05:07:48;;;;;;;13.05;6.72;;;;;;;22.84;49.48;101666.75;4998704;28;20434;-34
2023/06/09 05:10:14;;;;;;;15.82;7.32;;;;;;;22.87;49.58;101670.94;5002261;28;20342;-34
2023/06/09 05:12:41;;;;;;;16.58;6.78;;;;;;;22.88;49.45;101670.81;4999663;28;20045;-34
2023/06/09 05:15:08;;;;;;;13.32;5.85;;;;;;;22.90;49.67;101670.63;4999142;28;20085;-34
2023/06/09 05:17:41;;;;;;;14.50;6.97;;;;;;;22.90;49.41;101666.09;4998583;28;20597;-34
2023/06/09 05:20:09;;;;;;;14.77;6.90;;;;;;;22.92;49.47;101668.66;5001072;28;20172;-34
2023/06/09 05:22:37;;;;;;;14.18;6.38;;;;;;;22.94;49.07;101672.00;5002582;28;20038;-34
2023/06/09 05:25:05;;;;;;;12.23;6.53;;;;;;;22.95;49.52;101671.00;4999405;28;20464;-34
2023/06/09 05:27:32;;;;;;;13.15;7.07;;;;;;;22.96;49.70;101678.13;4996610;28;20327;-33
2023/06/09 05:29:58;;;;;;;14.23;6.32;;;;;;;22.98;48.93;101678.78;5002141;28;20108;-34
2023/06/09 05:32:25;;;;;;;14.20;7.43;;;;;;;23.00;49.01;101679.47;5005383;28;20136;-33
2023/06/09 05:34:52;;;;;;;11.75;6.50;;;;;;;23.01;48.92;101673.03;5004391;28;20077;-34
2023/06/09 05:37:19;;;;;;;16.58;6.78;;;;;;;23.03;49.52;101673.72;5001299;28;20493;-34
2023/06/09 05:39:45;;;;;;;14.43;6.15;;;;;;;23.05;48.79;101674.41;5003108;28;20082;-33
2023/06/09 05:42:15;;;;;;;13.27;6.75;;;;;;;23.07;48.89;101677.78;5007309;28;20334;-33
2023/06/09 05:44:41;;;;;;;17.92;6.28;;;;;;;23.08;48.78;101674.09;5006191;28;20074;-34
2023/06/09 05:47:08;;;;;;;13.65;6.22;;;;;;;23.09;48.69;101675.75;5002281;28;20562;-33
2023/06/09 05:49:38;;;;;;;12.52;6.07;;;;;;;23.10;48.55;101661.22;5005712;28;20050;-33
2023/06/09 05:52:05;;;;;;;14.48;7.10;;;;;;;23.13;48.94;101670.88;5002513;28;20054;-33
2023/06/09 05:54:32;;;;;;;15.68;6.32;;;;;;;23.14;48.51;101665.28;5004846;28;20053;-34
2023/06/09 05:56:59;;;;;;;20.33;6.90;;;;;;;23.15;48.54;101658.84;5005767;28;20637;-33
2023/06/09 05:59:25;;;;;;;15.32;6.60;;;;;;;23.16;48.15;101670.53;5003463;28;20089;-33
2023/06/09 06:01:52;;;;;;;15.68;6.15;;;;;;;23.17;48.47;101676.78;5005143;28;20050;-33
2023/06/09 06:04:19;;;;;;;15.15;6.85;;;;;;;23.17;48.42;101674.09;5004071;28;20056;-35
2023/06/09 06:06:46;;;;;;;13.07;6.45;;;;;;;23.19;48.22;101674.75;5001312;28;20053;-33
2023/06/09 06:09:14;;;;;;;25.10;7.55;;;;;;;23.19;48.22;101670.19;4999227;28;20046;-33
2023/06/09 06:11:40;;;;;;;16.60;6.45;;;;;;;23.19;48.08;101669.34;5001317;28;20103;-33
2023/06/09 06:14:07;;;;;;;15.93;7.05;;;;;;;23.19;48.70;101664.78;5006980;28;20054;-33
2023/06/09 06:16:34;;;;;;;16.00;6.72;;;;;;;23.19;48.11;101677.47;5004808;28;20066;-33
2023/06/09 06:19:01;;;;;;;17.48;7.05;;;;;;;23.19;47.92;101675.59;5008223;28;20042;-33
2023/06/09 06:21:27;;;;;;;17.67;6.68;;;;;;;23.20;48.36;101676.47;5002860;28;20065;-34
2023/06/09 06:23:54;;;;;;;19.65;6.78;;;;;;;23.21;48.57;101678.16;5000653;28;20050;-33
2023/06/09 06:26:21;;;;;;;23.23;6.43;;;;;;;23.21;47.91;101681.69;5001849;28;20050;-33
2023/06/09 06:28:48;;;;;;;21.95;6.68;;;;;;;23.21;48.21;101683.56;4999896;28;20093;-34
2023/06/09 06:31:16;;;;;;;15.38;6.25;;;;;;;23.21;47.95;101684.41;5006983;28;20053;-34
2023/06/09 06:33:44;;;;;;;19.92;7.22;;;;;;;23.22;48.21;101679.84;5006615;28;20141;-34
2023/06/09 06:36:11;;;;;;;24.30;6.43;;;;;;;23.23;48.10;101676.09;5003515;28;20104;-34
2023/06/09 06:38:38;;;;;;;25.25;7.15;;;;;;;23.23;48.37;101686.94;5005328;28;20054;-33
2023/06/09 06:41:05;;;;;;;17.27;6.68;;;;;;;23.23;47.89;101685.06;5008533;28;20051;-33
2023/06/09 06:43:32;;;;;;;14.50;5.95;;;;;;;23.24;48.31;101688.63;4997680;28;20044;-34
2023/06/09 06:45:58;;;;;;;14.27;6.35;;;;;;;23.23;48.10;101679.66;5006292;28;20058;-33
2023/06/09 06:48:27;;;;;;;14.02;6.22;;;;;;;23.25;48.14;101685.75;5000359;28;20065;-35
2023/06/09 06:50:54;;;;;;;15.43;5.82;;;;;;;23.25;48.06;101683.06;5000751;28;20109;-33
2023/06/09 06:53:21;;;;;;;16.25;6.88;;;;;;;23.26;47.65;101686.59;4995696;28;20141;-34
2023/06/09 06:55:48;;;;;;;12.38;5.88;;;;;;;23.25;47.97;101685.75;5000617;28;20057;-33
2023/06/09 06:58:15;;;;;;;11.57;6.18;;;;;;;23.25;48.05;101674.94;5001053;28;20112;-34
2023/06/09 07:00:41;;;;;;;16.05;6.28;;;;;;;23.25;47.98;101685.75;5004566;28;20090;-33
2023/06/09 07:03:12;;;;;;;12.45;6.00;;;;;;;23.25;47.88;101679.50;4999081;28;20046;-34
2023/06/09 07:05:40;;;;;;;11.45;5.90;;;;;;;23.26;47.51;101683.91;4999253;28;20359;-33
2023/06/09 07:08:06;;;;;;;16.63;5.90;;;;;;;23.26;47.30;101681.19;5031687;28;20393;-32
2023/06/09 07:10:34;;;;;;;15.95;5.45;;;;;;;23.26;47.15;101670.38;4998949;28;20089;-33
2023/06/09 07:13:00;;;;;;;10.88;4.90;;;;;;;23.26;47.10;101681.19;5003339;28;20077;-34
2023/06/09 07:15:27;;;;;;;8.85;5.53;;;;;;;23.26;47.12;101678.47;5003796;28;20056;-32
2023/06/09 07:17:53;;;;;;;10.07;4.60;;;;;;;23.27;47.07;101683.72;5000653;28;20082;-33
2023/06/09 07:20:21;;;;;;;11.98;5.00;;;;;;;23.26;47.29;101679.31;5002983;28;20050;-33
2023/06/09 07:22:50;;;;;;;10.07;4.93;;;;;;;23.26;47.84;101681.19;5001225;28;20062;-33
2023/06/09 07:25:17;;;;;;;14.25;5.38;;;;;;;23.25;47.48;101677.63;4997865;28;20042;-33
2023/06/09 07:27:44;;;;;;;9.88;4.90;;;;;;;23.26;47.31;101681.19;5000366;28;20053;-33
2023/06/09 07:30:11;;;;;;;11.15;4.57;;;;;;;23.26;47.72;101684.72;5002683;28;20055;-33
2023/06/09 07:32:39;;;;;;;11.75;5.18;;;;;;;23.27;47.06;101682.88;4999431;28;20057;-32
2023/06/09 07:35:06;;;;;;;12.70;4.82;;;;;;;23.27;47.34;101678.31;5000300;28;20657;-33
2023/06/09 07:37:32;;;;;;;12.38;4.43;;;;;;;23.27;46.97;101682.88;5002928;28;20109;-33
2023/06/09 07:39:59;;;;;;;9.85;4.60;;;;;;;23.27;47.35;101681.00;5000437;28;20085;-33
2023/06/09 07:42:28;;;;;;;11.25;4.50;;;;;;;23.28;47.35;101682.72;4997122;28;20686;-32
2023/06/09 07:44:55;;;;;;;11.02;4.55;;;;;;;23.29;47.34;101686.28;4999866;28;20140;-32
2023/06/09 07:47:21;;;;;;;10.20;5.28;;;;;;;23.29;47.18;101686.28;5026332;28;20054;-33
2023/06/09 07:49:48;;;;;;;10.43;4.60;;;;;;;23.31;46.98;101686.94;5000007;28;20131;-33
2023/06/09 07:52:15;;;;;;;10.05;4.97;;;;;;;23.31;47.44;101687.78;5001839;28;20382;-33
2023/06/09 07:54:49;;;;;;;10.40;4.95;;;;;;;23.32;46.80;101680.53;5002284;28;20101;-33
2023/06/09 07:57:16;;;;;;;13.13;4.75;;;;;;;23.34;47.11;101670.38;4996752;28;20133;-33
2023/06/09 07:59:45;;;;;;;10.20;4.70;;;;;;;23.35;46.66;101681.00;5002856;28;20201;-33
2023/06/09 08:02:12;;;;;;;11.18;4.90;;;;;;;23.37;47.14;101683.56;5007387;28;20430;-33
2023/06/09 08:04:40;;;;;;;12.63;5.22;;;;;;;23.38;46.90;101685.25;5007446;28;20071;-33
2023/06/09 08:07:07;;;;;;;12.43;5.43;;;;;;;23.37;46.75;101676.28;5000667;28;20442;-34
2023/06/09 08:09:34;;;;;;;11.30;4.82;;;;;;;23.39;47.37;101674.25;5003831;28;21012;-33
2023/06/09 08:12:01;;;;;;;12.25;5.20;;;;;;;23.40;46.43;101678.66;5005090;28;20132;-33
2023/06/09 08:14:27;;;;;;;11.52;5.00;;;;;;;23.40;47.20;101680.53;5006896;28;20054;-33
2023/06/09 08:16:54;;;;;;;10.68;5.00;;;;;;;23.42;46.75;101672.22;5006296;28;20181;-32
2023/06/09 08:19:21;;;;;;;11.43;4.45;;;;;;;23.43;47.21;101672.06;4998276;28;20089;-32
2023/06/09 08:21:48;;;;;;;13.73;6.20;;;;;;;23.44;47.41;101667.47;5001341;28;20061;-33
2023/06/09 08:24:16;;;;;;;9.88;4.95;;;;;;;23.44;47.48;101660.25;4998826;28;20508;-33
2023/06/09 08:26:43;;;;;;;10.20;5.10;;;;;;;23.45;47.16;101661.91;5002165;28;20053;-33
2023/06/09 08:29:10;;;;;;;17.42;5.03;;;;;;;23.46;47.18;101663.59;4997568;28;20062;-33
2023/06/09 08:31:39;;;;;;;13.95;5.43;;;;;;;23.46;47.14;101666.31;4998637;28;20350;-34
2023/06/09 08:34:06;;;;;;;11.82;5.28;;;;;;;23.48;47.50;101664.28;5000955;28;20046;-33
2023/06/09 08:36:33;;;;;;;11.75;4.95;;;;;;;23.48;47.49;101658.88;5001627;28;20050;-34
2023/06/09 08:39:00;;;;;;;13.63;5.25;;;;;;;23.49;47.58;101659.72;5001768;28;20104;-33
2023/06/09 08:41:28;;;;;;;10.80;5.28;;;;;;;23.49;47.32;101657.84;4997335;28;20120;-33
2023/06/09 08:43:55;;;;;;;12.85;5.97;;;;;;;23.51;47.31;101655.81;5000724;28;20124;-33
2023/06/09 08:46:25;;;;;;;14.00;5.25;;;;;;;23.51;47.48;101658.53;5000344;28;20710;-33
2023/06/09 08:48:57;;;;;;;14.32;4.72;;;;;;;23.52;47.07;101653.97;5000019;28;20113;-33
2023/06/09 08:51:25;;;;;;;13.18;5.55;;;;;;;23.52;47.46;101660.22;5001267;28;20077;-33
2023/06/09 08:53:52;;;;;;;11.43;5.18;;;;;;;23.54;47.46;101660.06;5002761;28;20046;-33
2023/06/09 08:56:23;;;;;;;15.10;5.68;;;;;;;23.54;47.44;101663.59;5000684;28;20100;-34
2023/06/09 08:58:52;;;;;;;12.90;4.85;;;;;;;23.55;47.48;101661.72;5002509;28;20049;-34
2023/06/09 09:01:19;;;;;;;16.27;5.18;;;;;;;23.56;47.17;101658.03;5001078;28;20422;-34
2023/06/09 09:03:47;;;;;;;12.93;5.32;;;;;;;23.57;47.03;101663.25;4996738;28;20338;-33
2023/06/09 09:06:14;;;;;;;13.23;5.47;;;;;;;23.58;47.19;101659.53;5000769;28;20057;-34
2023/06/09 09:08:41;;;;;;;12.80;4.80;;;;;;;23.59;47.07;101661.22;5002996;28;20066;-34
2023/06/09 09:11:08;;;;;;;13.23;5.32;;;;;;;23.60;47.01;101651.28;5001672;28;20087;-33
2023/06/09 09:13:34;;;;;;;11.73;4.82;;;;;;;23.61;47.22;101656.50;5006395;28;20035;-33
2023/06/09 09:16:01;;;;;;;9.23;4.70;;;;;;;23.62;47.10;101655.47;5008721;28;20088;-33
2023/06/09 09:18:43;;;;;;;12.77;5.13;;;;;;;23.63;47.57;101650.91;5006556;28;20050;-33
2023/06/09 09:21:09;;;;;;;13.32;4.93;;;;;;;23.64;47.28;101658.88;5004437;28;20546;-33
2023/06/09 09:23:36;;;;;;;13.70;4.38;;;;;;;23.66;47.67;101649.75;5003584;28;20054;-33
2023/06/09 09:26:03;;;;;;;10.82;4.78;;;;;;;23.67;47.23;101649.56;5000520;28;20445;-34
2023/06/09 09:28:39;;;;;;;9.60;4.53;;;;;;;23.70;47.13;101645.69;5005576;28;20050;-34
2023/06/09 09:31:08;;;;;;;11.57;4.88;;;;;;;23.73;47.12;101645.34;5003529;28;20445;-33
2023/06/09 09:33:38;;;;;;;9.75;4.82;;;;;;;23.74;47.12;101647.88;5005728;28;20039;-34
2023/06/09 09:36:09;;;;;;;9.77;4.68;;;;;;;23.75;47.56;101643.31;5001867;28;20454;-34
2023/06/09 09:38:36;;;;;;;8.80;4.45;;;;;;;23.78;47.06;101638.41;5007260;28;20050;-34
2023/06/09 09:41:04;;;;;;;9.02;4.43;;;;;;;23.80;47.31;101632.78;5008803;28;20104;-33
2023/06/09 09:43:31;;;;;;;12.77;4.50;;;;;;;23.81;47.20;101638.06;5009692;28;20333;-34
2023/06/09 09:46:07;;;;;;;11.40;4.75;;;;;;;23.82;47.17;101628.91;5002736;28;20404;-33
2023/06/09 09:48:39;;;;;;;10.80;5.13;;;;;;;23.87;47.08;101636.50;5007039;28;20127;-33
2023/06/09 09:51:08;;;;;;;8.63;4.72;;;;;;;23.89;47.10;101640.75;5007544;28;20061;-34
2023/06/09 09:53:35;;;;;;;13.68;5.00;;;;;;;23.90;47.20;101641.59;5004181;28;20053;-34
2023/06/09 09:56:02;;;;;;;11.10;5.07;;;;;;;23.92;47.34;101634.16;5003100;28;20045;-33
2023/06/09 09:58:34;;;;;;;8.85;4.60;;;;;;;23.93;46.98;101627.72;5002511;28;20403;-34
2023/06/09 10:01:05;;;;;;;7.28;4.35;;;;;;;23.95;47.22;101636.47;5006905;28;20321;-33
2023/06/09 10:03:34;;;;;;;11.57;4.70;;;;;;;23.97;47.00;101630.91;5000481;28;20119;-33
2023/06/09 10:06:06;;;;;;;8.57;4.38;;;;;;;24.00;47.09;101635.97;5003395;28;20132;-34
2023/06/09 10:08:33;;;;;;;8.82;4.82;;;;;;;24.01;46.69;101630.38;5001053;28;20042;-33
2023/06/09 10:11:01;;;;;;;9.18;3.97;;;;;;;24.02;46.58;101632.06;4997095;28;20045;-34
2023/06/09 10:13:28;;;;;;;10.52;4.95;;;;;;;24.04;46.98;101629.19;5032771;28;20046;-33
2023/06/09 10:15:59;;;;;;;7.30;4.00;;;;;;;24.06;46.87;101630.69;5000888;28;20080;-34
2023/06/09 10:18:26;;;;;;;8.32;4.28;;;;;;;24.08;46.95;101625.09;5001797;28;20057;-34
2023/06/09 10:20:54;;;;;;;8.20;4.30;;;;;;;24.10;47.19;101621.22;5003282;28;20050;-34
2023/06/09 10:23:21;;;;;;;9.15;4.22;;;;;;;24.13;46.67;101620.03;5007781;28;20348;-33
2023/06/09 10:25:49;;;;;;;8.40;4.25;;;;;;;24.14;46.56;101624.41;5003250;28;20146;-33
2023/06/09 10:28:17;;;;;;;11.82;4.47;;;;;;;24.14;46.88;101619.84;5003639;28;20062;-33
2023/06/09 10:30:45;;;;;;;7.57;4.50;;;;;;;24.17;46.86;101615.94;4998728;28;20409;-33
2023/06/09 10:33:16;;;;;;;7.65;3.83;;;;;;;24.18;46.94;101612.22;5006126;28;20109;-32
2023/06/09 10:35:46;;;;;;;8.23;4.20;;;;;;;24.19;46.54;101618.47;5003808;28;20057;-33
2023/06/09 10:38:21;;;;;;;8.68;4.72;;;;;;;24.21;46.45;101621.84;5007820;28;20132;-33
2023/06/09 10:40:53;;;;;;;8.52;4.18;;;;;;;24.22;46.46;101613.53;5002458;28;20528;-33
2023/06/09 10:43:37;;;;;;;8.30;4.63;;;;;;;24.23;47.21;101609.81;4999590;28;20373;-33
2023/06/09 10:46:03;;;;;;;;;;;;;;;24.25;47.33;101610.50;5001255;28;20100;-33
2023/06/09 10:48:50;;;;;;;6.60;3.95;;;;;;;24.28;46.88;101603.84;4997875;28;19929;-33
2023/06/09 10:51:26;;;;;;;6.85;4.65;;;;;;;24.28;46.96;101593.88;5000483;28;20047;-33
2023/06/09 10:54:17;;;;;;;7.18;4.82;;;;;;;24.29;47.09;101603.69;5004262;28;20129;-33
2023/06/09 10:56:52;;;;;;;9.70;4.55;;;;;;;24.32;47.31;101586.22;5000371;28;20055;-33
2023/06/09 10:59:25;;;;;;;12.55;4.78;;;;;;;24.31;46.91;101590.81;5005243;28;20146;-33
2023/06/09 11:02:00;;;;;;;7.47;4.47;;;;;;;24.32;46.63;101584.38;5001635;28;20049;-33
2023/06/09 11:04:46;;;;;;;12.00;4.97;;;;;;;24.34;47.11;101579.63;5005231;28;20074;-33
2023/06/09 11:07:15;;;;;;;7.60;4.20;;;;;;;24.37;46.91;101581.97;5003165;28;20133;-33
2023/06/09 11:09:48;;;;;;;8.90;4.32;;;;;;;24.37;46.70;101579.28;4997701;28;20061;-36
2023/06/09 11:12:24;;;;;;;12.40;4.68;;;;;;;24.40;46.51;101569.94;5001440;28;20042;-33
2023/06/09 11:14:51;;;;;;;10.18;4.70;;;;;;;24.43;46.55;101571.47;5001170;28;20054;-33
2023/06/09 11:17:22;;;;;;;9.45;4.35;;;;;;;24.44;46.29;101559.59;5000288;28;20100;-33
2023/06/09 11:19:51;;;;;;;9.40;4.80;;;;;;;24.46;46.83;101554.88;4999627;28;20073;-33
2023/06/09 11:22:18;;;;;;;10.43;5.18;;;;;;;24.46;46.60;101554.88;4989886;28;20105;-33
2023/06/09 11:24:48;;;;;;;7.88;4.30;;;;;;;24.47;46.66;101557.38;5005938;28;20050;-33
2023/06/09 11:27:19;;;;;;;12.48;4.78;;;;;;;24.47;47.08;101549.25;5004211;28;20054;-35